sensor_id;sensor_type;location;lat;lon;timestamp;pressure;altitude;pressure_sealevel;temperature;humidity
19600;BME280;9947;57.722;12.012;2023-04-04T00:01:44;102669.34;;;-1.76;100.00
19600;BME280;9947;57.722;12.012;2023-04-04T00:04:12;102672.88;;;-1.77;100.00
19600;BME280;9947;57.722;12.012;2023-04-04T00:06:39;102671.09;;;-1.79;100.00
19600;BME280;9947;57.722;12.012;2023-04-04T00:09:11;102676.38;;;-1.79;100.00
19600;BME280;9947;57.722;12.012;2023-04-04T00:11:39;102664.88;;;-1.81;100.00
19600;BME280;9947;57.722;12.012;2023-04-04T00:14:07;102669.31;;;-1.82;100.00
19600;BME280;9947;57.722;12.012;2023-04-04T00:16:34;102666.59;;;-1.85;100.00
19600;BME280;9947;57.722;12.012;2023-04-04T00:19:02;102660.44;;;-1.84;100.00
19600;BME280;9947;57.722;12.012;2023-04-04T00:21:29;102660.44;;;-1.84;100.00
19600;BME280;9947;57.722;12.012;2023-04-04T00:23:57;102657.78;;;-1.86;100.00
19600;BME280;9947;57.722;12.012;2023-04-04T00:26:26;102654.25;;;-1.84;100.00
19600;BME280;9947;57.722;12.012;2023-04-04T00:28:53;102652.47;;;-1.86;100.00
19600;BME280;9947;57.722;12.012;2023-04-04T00:31:26;102652.47;;;-1.86;100.00
19600;BME280;9947;57.722;12.012;2023-04-04T00:33:59;102647.22;;;-1.81;100.00
19600;BME280;9947;57.722;12.012;2023-04-04T00:36:32;102655.13;;;-1.86;100.00
19600;BME280;9947;57.722;12.012;2023-04-04T00:38:59;102653.38;;;-1.83;100.00
19600;BME280;9947;57.722;12.012;2023-04-04T00:41:28;102641.88;;;-1.86;100.00
19600;BME280;9947;57.722;12.012;2023-04-04T00:43:55;102640.97;;;-1.88;100.00
19600;BME280;9947;57.722;12.012;2023-04-04T00:46:22;102642.72;;;-1.91;100.00
19600;BME280;9947;57.722;12.012;2023-04-04T00:48:50;102633.91;;;-1.90;100.00
19600;BME280;9947;57.722;12.012;2023-04-04T00:51:19;102630.34;;;-1.95;100.00
19600;BME280;9947;57.722;12.012;2023-04-04T00:53:47;102623.28;;;-1.95;100.00
19600;BME280;9947;57.722;12.012;2023-04-04T00:56:14;102616.22;;;-1.96;100.00
19600;BME280;9947;57.722;12.012;2023-04-04T00:58:43;102617.09;;;-1.97;100.00
19600;BME280;9947;57.722;12.012;2023-04-04T01:01:11;102604.72;;;-1.96;100.00
19600;BME280;9947;57.722;12.012;2023-04-04T01:03:38;102605.59;;;-1.97;100.00
19600;BME280;9947;57.722;12.012;2023-04-04T01:06:10;102610.91;;;-1.94;100.00
19600;BME280;9947;57.722;12.012;2023-04-04T01:08:37;102609.13;;;-1.95;100.00
19600;BME280;9947;57.722;12.012;2023-04-04T01:11:04;102602.97;;;-1.94;100.00
19600;BME280;9947;57.722;12.012;2023-04-04T01:13:33;102615.31;;;-1.95;100.00
19600;BME280;9947;57.722;12.012;2023-04-04T01:16:02;102609.16;;;-1.94;100.00
19600;BME280;9947;57.722;12.012;2023-04-04T01:18:30;102608.25;;;-1.94;100.00
19600;BME280;9947;57.722;12.012;2023-04-04T01:21:00;102612.69;;;-1.95;100.00
19600;BME280;9947;57.722;12.012;2023-04-04T01:23:34;102613.56;;;-1.91;100.00
19600;BME280;9947;57.722;12.012;2023-04-04T01:26:06;102611.81;;;-1.92;100.00
19600;BME280;9947;57.722;12.012;2023-04-04T01:28:40;102610.03;;;-1.90;100.00
19600;BME280;9947;57.722;12.012;2023-04-04T01:31:10;102612.69;;;-1.87;100.00
19600;BME280;9947;57.722;12.012;2023-04-04T01:33:42;102612.72;;;-1.82;100.00
19600;BME280;9947;57.722;12.012;2023-04-04T01:36:15;102600.38;;;-1.82;100.00
19600;BME280;9947;57.722;12.012;2023-04-04T01:38:51;102603.91;;;-1.80;100.00
19600;BME280;9947;57.722;12.012;2023-04-04T01:41:20;102609.19;;;-1.83;100.00
19600;BME280;9947;57.722;12.012;2023-04-04T01:43:49;102602.09;;;-1.86;100.00
19600;BME280;9947;57.722;12.012;2023-04-04T01:46:17;102606.50;;;-1.89;100.00
19600;BME280;9947;57.722;12.012;2023-04-04T01:48:44;102601.19;;;-1.91;100.00
19600;BME280;9947;57.722;12.012;2023-04-04T01:51:11;102596.75;;;-1.99;100.00
19600;BME280;9947;57.722;12.012;2023-04-04T01:53:38;102601.19;;;-1.95;100.00
19600;BME280;9947;57.722;12.012;2023-04-04T01:56:05;102600.31;;;-1.91;100.00
19600;BME280;9947;57.722;12.012;2023-04-04T01:58:40;102591.47;;;-1.92;100.00
19600;BME280;9947;57.722;12.012;2023-04-04T02:01:07;102591.50;;;-1.87;100.00
19600;BME280;9947;57.722;12.012;2023-04-04T02:03:41;102587.97;;;-1.89;100.00
19600;BME280;9947;57.722;12.012;2023-04-04T02:06:08;102582.66;;;-1.83;100.00
19600;BME280;9947;57.722;12.012;2023-04-04T02:08:35;102585.38;;;-1.78;100.00
19600;BME280;9947;57.722;12.012;2023-04-04T02:11:02;102573.88;;;-1.82;100.00
19600;BME280;9947;57.722;12.012;2023-04-04T02:13:29;102582.66;;;-1.84;100.00
19600;BME280;9947;57.722;12.012;2023-04-04T02:16:01;102572.94;;;-1.86;100.00
19600;BME280;9947;57.722;12.012;2023-04-04T02:18:28;102573.81;;;-1.88;100.00
19600;BME280;9947;57.722;12.012;2023-04-04T02:20:55;102572.94;;;-1.87;100.00
19600;BME280;9947;57.722;12.012;2023-04-04T02:23:22;102573.81;;;-1.91;100.00
19600;BME280;9947;57.722;12.012;2023-04-04T02:25:49;102565.84;;;-1.97;100.00
19600;BME280;9947;57.722;12.012;2023-04-04T02:28:23;102566.75;;;-1.92;100.00
19600;BME280;9947;57.722;12.012;2023-04-04T02:30:50;102555.28;;;-1.88;100.00
19600;BME280;9947;57.722;12.012;2023-04-04T02:33:19;102551.72;;;-1.92;100.00
19600;BME280;9947;57.722;12.012;2023-04-04T02:35:50;102553.47;;;-1.95;100.00
19600;BME280;9947;57.722;12.012;2023-04-04T02:38:29;102543.75;;;-1.99;100.00
19600;BME280;9947;57.722;12.012;2023-04-04T02:40:56;102541.09;;;-1.98;100.00
19600;BME280;9947;57.722;12.012;2023-04-04T02:43:23;102538.44;;;-2.01;100.00
19600;BME280;9947;57.722;12.012;2023-04-04T02:45:50;102544.66;;;-1.97;100.00
19600;BME280;9947;57.722;12.012;2023-04-04T02:48:18;102539.34;;;-2.00;100.00
19600;BME280;9947;57.722;12.012;2023-04-04T02:50:45;102541.09;;;-2.01;100.00
19600;BME280;9947;57.722;12.012;2023-04-04T02:53:14;102537.56;;;-2.04;100.00
19600;BME280;9947;57.722;12.012;2023-04-04T02:55:43;102542.88;;;-1.98;100.00
19600;BME280;9947;57.722;12.012;2023-04-04T02:58:10;102529.63;;;-1.95;100.00
19600;BME280;9947;57.722;12.012;2023-04-04T03:03:40;102526.97;;;-1.98;100.00
19600;BME280;9947;57.722;12.012;2023-04-04T03:06:07;102524.31;;;-1.98;100.00
19600;BME280;9947;57.722;12.012;2023-04-04T03:08:35;102517.25;;;-1.93;100.00
19600;BME280;9947;57.722;12.012;2023-04-04T03:11:03;102521.69;;;-1.91;100.00
19600;BME280;9947;57.722;12.012;2023-04-04T03:13:40;102522.56;;;-1.89;100.00
19600;BME280;9947;57.722;12.012;2023-04-04T03:16:13;102518.16;;;-1.85;100.00
19600;BME280;9947;57.722;12.012;2023-04-04T03:18:46;102511.13;;;-1.80;100.00
19600;BME280;9947;57.722;12.012;2023-04-04T03:21:14;102507.59;;;-1.77;100.00
19600;BME280;9947;57.722;12.012;2023-04-04T03:23:44;102508.50;;;-1.74;100.00
19600;BME280;9947;57.722;12.012;2023-04-04T03:26:11;102509.38;;;-1.67;100.00
19600;BME280;9947;57.722;12.012;2023-04-04T03:28:39;102504.97;;;-1.64;100.00
19600;BME280;9947;57.722;12.012;2023-04-04T03:31:08;102496.13;;;-1.60;100.00
19600;BME280;9947;57.722;12.012;2023-04-04T03:33:35;102483.75;;;-1.64;100.00
19600;BME280;9947;57.722;12.012;2023-04-04T03:36:12;102492.59;;;-1.63;100.00
19600;BME280;9947;57.722;12.012;2023-04-04T03:38:46;102489.94;;;-1.65;100.00
19600;BME280;9947;57.722;12.012;2023-04-04T03:41:16;102491.69;;;-1.65;100.00
19600;BME280;9947;57.722;12.012;2023-04-04T03:43:43;102485.50;;;-1.60;100.00
19600;BME280;9947;57.722;12.012;2023-04-04T03:46:10;102495.25;;;-1.63;100.00
19600;BME280;9947;57.722;12.012;2023-04-04T03:48:37;102489.06;;;-1.68;100.00
19600;BME280;9947;57.722;12.012;2023-04-04T03:51:04;102481.97;;;-1.65;100.00
19600;BME280;9947;57.722;12.012;2023-04-04T03:53:39;102484.63;;;-1.57;100.00
19600;BME280;9947;57.722;12.012;2023-04-04T03:56:06;102487.28;;;-1.57;100.00
19600;BME280;9947;57.722;12.012;2023-04-04T03:58:34;102488.19;;;-1.55;100.00
19600;BME280;9947;57.722;12.012;2023-04-04T04:01:08;102489.09;;;-1.56;100.00
19600;BME280;9947;57.722;12.012;2023-04-04T04:03:38;102480.25;;;-1.52;100.00
19600;BME280;9947;57.722;12.012;2023-04-04T04:06:05;102476.69;;;-1.40;100.00
19600;BME280;9947;57.722;12.012;2023-04-04T04:08:32;102478.47;;;-1.33;100.00
19600;BME280;9947;57.722;12.012;2023-04-04T04:11:04;102476.69;;;-1.37;100.00
19600;BME280;9947;57.722;12.012;2023-04-04T04:13:31;102474.94;;;-1.41;100.00
19600;BME280;9947;57.722;12.012;2023-04-04T04:16:01;102473.16;;;-1.32;100.00
19600;BME280;9947;57.722;12.012;2023-04-04T04:18:28;102468.75;;;-1.25;100.00
19600;BME280;9947;57.722;12.012;2023-04-04T04:20:58;102469.63;;;-1.32;100.00
19600;BME280;9947;57.722;12.012;2023-04-04T04:23:26;102466.09;;;-1.22;100.00
19600;BME280;9947;57.722;12.012;2023-04-04T04:25:54;102468.72;;;-1.10;100.00
19600;BME280;9947;57.722;12.012;2023-04-04T04:28:22;102469.59;;;-1.05;100.00
19600;BME280;9947;57.722;12.012;2023-04-04T04:30:50;102469.63;;;-1.20;100.00
19600;BME280;9947;57.722;12.012;2023-04-04T04:33:17;102457.25;;;-1.19;100.00
19600;BME280;9947;57.722;12.012;2023-04-04T04:35:44;102463.44;;;-1.14;100.00
19600;BME280;9947;57.722;12.012;2023-04-04T04:38:15;102458.09;;;-1.10;100.00
19600;BME280;9947;57.722;12.012;2023-04-04T04:40:49;102467.84;;;-1.07;100.00
19600;BME280;9947;57.722;12.012;2023-04-04T04:43:24;102466.06;;;-1.07;100.00
19600;BME280;9947;57.722;12.012;2023-04-04T04:45:52;102466.09;;;-1.01;100.00
19600;BME280;9947;57.722;12.012;2023-04-04T04:48:20;102462.53;;;-0.97;100.00
19600;BME280;9947;57.722;12.012;2023-04-04T04:50:58;102464.28;;;-0.93;100.00
19600;BME280;9947;57.722;12.012;2023-04-04T04:53:35;102457.19;;;-0.90;100.00
19600;BME280;9947;57.722;12.012;2023-04-04T04:56:02;102467.78;;;-0.80;100.00
19600;BME280;9947;57.722;12.012;2023-04-04T04:58:31;102458.06;;;-0.73;100.00
19600;BME280;9947;57.722;12.012;2023-04-04T05:00:58;102464.25;;;-0.79;100.00
19600;BME280;9947;57.722;12.012;2023-04-04T05:03:26;102465.13;;;-0.80;100.00
19600;BME280;9947;57.722;12.012;2023-04-04T05:05:53;102464.25;;;-0.80;100.00
19600;BME280;9947;57.722;12.012;2023-04-04T05:08:20;102461.59;;;-0.74;100.00
19600;BME280;9947;57.722;12.012;2023-04-04T05:10:48;102458.06;;;-0.81;100.00
19600;BME280;9947;57.722;12.012;2023-04-04T05:13:17;102462.47;;;-0.69;100.00
19600;BME280;9947;57.722;12.012;2023-04-04T05:15:46;102460.69;;;-0.64;100.00
19600;BME280;9947;57.722;12.012;2023-04-04T05:18:13;102457.97;;;-0.56;100.00
19600;BME280;9947;57.722;12.012;2023-04-04T05:20:40;102466.84;;;-0.57;100.00
19600;BME280;9947;57.722;12.012;2023-04-04T05:23:08;102463.31;;;-0.59;100.00
19600;BME280;9947;57.722;12.012;2023-04-04T05:25:35;102458.91;;;-0.62;100.00
19600;BME280;9947;57.722;12.012;2023-04-04T05:28:08;102459.78;;;-0.60;100.00
19600;BME280;9947;57.722;12.012;2023-04-04T05:30:35;102460.63;;;-0.46;100.00
19600;BME280;9947;57.722;12.012;2023-04-04T05:33:04;102463.19;;;-0.29;100.00
19600;BME280;9947;57.722;12.012;2023-04-04T05:35:34;102462.28;;;-0.20;100.00
19600;BME280;9947;57.722;12.012;2023-04-04T05:38:01;102451.66;;;-0.20;100.00
19600;BME280;9947;57.722;12.012;2023-04-04T05:40:27;102451.66;;;-0.20;100.00
19600;BME280;9947;57.722;12.012;2023-04-04T05:42:55;102456.09;;;-0.30;100.00
19600;BME280;9947;57.722;12.012;2023-04-04T05:45:29;102452.53;;;-0.20;100.00
19600;BME280;9947;57.722;12.012;2023-04-04T05:50:35;102453.41;;;-0.18;100.00
19600;BME280;9947;57.722;12.012;2023-04-04T05:53:12;102445.44;;;-0.18;100.00
19600;BME280;9947;57.722;12.012;2023-04-04T05:55:39;102452.56;;;-0.24;100.00
19600;BME280;9947;57.722;12.012;2023-04-04T05:58:06;102449.84;;;-0.15;100.00
19600;BME280;9947;57.722;12.012;2023-04-04T06:00:33;102458.66;;;-0.07;100.00
19600;BME280;9947;57.722;12.012;2023-04-04T06:03:00;102452.44;;;-0.06;100.00
19600;BME280;9947;57.722;12.012;2023-04-04T06:05:27;102451.63;;;-0.14;100.00
19600;BME280;9947;57.722;12.012;2023-04-04T06:07:57;102456.00;;;-0.09;100.00
19600;BME280;9947;57.722;12.012;2023-04-04T06:10:24;102449.78;;;-0.06;100.00
19600;BME280;9947;57.722;12.012;2023-04-04T06:12:51;102444.47;;;-0.06;100.00
19600;BME280;9947;57.722;12.012;2023-04-04T06:15:18;102446.25;;;-0.05;100.00
19600;BME280;9947;57.722;12.012;2023-04-04T06:17:45;102446.19;;;0.07;100.00
19600;BME280;9947;57.722;12.012;2023-04-04T06:20:12;102441.59;;;0.26;100.00
19600;BME280;9947;57.722;12.012;2023-04-04T06:22:39;102437.97;;;0.39;100.00
19600;BME280;9947;57.722;12.012;2023-04-04T06:25:08;102435.25;;;0.47;100.00
19600;BME280;9947;57.722;12.012;2023-04-04T06:27:35;102436.22;;;0.38;100.00
19600;BME280;9947;57.722;12.012;2023-04-04T06:30:03;102440.56;;;0.47;100.00
19600;BME280;9947;57.722;12.012;2023-04-04T06:32:30;102439.72;;;0.42;100.00
19600;BME280;9947;57.722;12.012;2023-04-04T06:35:05;102447.53;;;0.65;100.00
19600;BME280;9947;57.722;12.012;2023-04-04T06:37:32;102443.94;;;0.69;100.00
19600;BME280;9947;57.722;12.012;2023-04-04T06:39:59;102441.22;;;0.75;100.00
19600;BME280;9947;57.722;12.012;2023-04-04T06:42:28;102435.88;;;0.76;100.00
19600;BME280;9947;57.722;12.012;2023-04-04T06:44:55;102443.00;;;0.74;100.00
19600;BME280;9947;57.722;12.012;2023-04-04T06:47:22;102441.91;;;0.97;100.00
19600;BME280;9947;57.722;12.012;2023-04-04T06:49:49;102434.00;;;0.90;100.00
19600;BME280;9947;57.722;12.012;2023-04-04T06:52:16;102437.63;;;0.82;100.00
19600;BME280;9947;57.722;12.012;2023-04-04T06:54:43;102437.59;;;0.85;100.00
19600;BME280;9947;57.722;12.012;2023-04-04T06:57:10;102437.47;;;0.96;100.00
19600;BME280;9947;57.722;12.012;2023-04-04T06:59:39;102441.97;;;0.90;100.00
19600;BME280;9947;57.722;12.012;2023-04-04T07:02:05;102445.50;;;0.92;100.00
19600;BME280;9947;57.722;12.012;2023-04-04T07:04:36;102438.91;;;1.30;100.00
19600;BME280;9947;57.722;12.012;2023-04-04T07:07:05;102436.38;;;1.18;100.00
19600;BME280;9947;57.722;12.012;2023-04-04T07:09:33;102430.94;;;1.26;100.00
19600;BME280;9947;57.722;12.012;2023-04-04T07:12:03;102430.03;;;1.27;100.00
19600;BME280;9947;57.722;12.012;2023-04-04T07:14:30;102425.41;;;1.45;100.00
19600;BME280;9947;57.722;12.012;2023-04-04T07:16:58;102425.34;;;1.50;100.00
19600;BME280;9947;57.722;12.012;2023-04-04T07:19:25;102423.16;;;1.79;100.00
19600;BME280;9947;57.722;12.012;2023-04-04T07:21:53;102429.22;;;1.94;100.00
19600;BME280;9947;57.722;12.012;2023-04-04T07:24:20;102428.13;;;2.08;100.00
19600;BME280;9947;57.722;12.012;2023-04-04T07:26:54;102418.81;;;2.35;100.00
19600;BME280;9947;57.722;12.012;2023-04-04T07:29:24;102415.13;;;2.42;100.00
19600;BME280;9947;57.722;12.012;2023-04-04T07:31:51;102416.63;;;2.60;100.00
19600;BME280;9947;57.722;12.012;2023-04-04T07:34:20;102409.97;;;2.83;100.00
19600;BME280;9947;57.722;12.012;2023-04-04T07:36:47;102412.84;;;3.20;100.00
19600;BME280;9947;57.722;12.012;2023-04-04T07:39:14;102402.50;;;3.48;100.00
19600;BME280;9947;57.722;12.012;2023-04-04T07:41:41;102408.59;;;3.54;100.00
19600;BME280;9947;57.722;12.012;2023-04-04T07:44:08;102403.75;;;3.73;100.00
19600;BME280;9947;57.722;12.012;2023-04-04T07:46:35;102404.53;;;3.77;100.00
19600;BME280;9947;57.722;12.012;2023-04-04T07:49:04;102406.22;;;3.81;100.00
19600;BME280;9947;57.722;12.012;2023-04-04T07:51:33;102401.53;;;3.92;100.00
19600;BME280;9947;57.722;12.012;2023-04-04T07:54:01;102411.09;;;4.39;100.00
19600;BME280;9947;57.722;12.012;2023-04-04T07:56:30;102403.38;;;4.27;100.00
19600;BME280;9947;57.722;12.012;2023-04-04T07:58:57;102403.63;;;4.18;100.00
19600;BME280;9947;57.722;12.012;2023-04-04T08:01:24;102407.19;;;3.78;100.00
19600;BME280;9947;57.722;12.012;2023-04-04T08:03:51;102407.59;;;3.58;100.00
19600;BME280;9947;57.722;12.012;2023-04-04T08:06:26;102399.78;;;3.89;100.00
19600;BME280;9947;57.722;12.012;2023-04-04T08:08:54;102404.19;;;3.93;100.00
19600;BME280;9947;57.722;12.012;2023-04-04T08:11:24;102404.69;;;3.27;100.00
19600;BME280;9947;57.722;12.012;2023-04-04T08:13:52;102404.50;;;3.36;100.00
19600;BME280;9947;57.722;12.012;2023-04-04T08:16:25;102402.84;;;3.29;100.00
19600;BME280;9947;57.722;12.012;2023-04-04T08:18:55;102398.09;;;3.45;100.00
19600;BME280;9947;57.722;12.012;2023-04-04T08:21:21;102397.31;;;3.80;100.00
19600;BME280;9947;57.722;12.012;2023-04-04T08:23:51;102392.91;;;4.16;100.00
19600;BME280;9947;57.722;12.012;2023-04-04T08:26:21;102392.34;;;4.03;100.00
19600;BME280;9947;57.722;12.012;2023-04-04T08:28:48;102385.31;;;3.99;100.00
19600;BME280;9947;57.722;12.012;2023-04-04T08:31:16;102398.50;;;4.07;100.00
19600;BME280;9947;57.722;12.012;2023-04-04T08:33:43;102392.59;;;4.30;100.00
19600;BME280;9947;57.722;12.012;2023-04-04T08:36:10;102399.22;;;3.75;100.00
19600;BME280;9947;57.722;12.012;2023-04-04T08:38:44;102398.03;;;4.27;100.00
19600;BME280;9947;57.722;12.012;2023-04-04T08:41:11;102397.91;;;4.31;100.00
19600;BME280;9947;57.722;12.012;2023-04-04T08:43:42;102397.38;;;4.16;100.00
19600;BME280;9947;57.722;12.012;2023-04-04T08:46:11;102388.31;;;4.23;100.00
19600;BME280;9947;57.722;12.012;2023-04-04T08:48:41;102384.50;;;4.69;100.00
19600;BME280;9947;57.722;12.012;2023-04-04T08:51:10;102386.75;;;4.84;100.00
19600;BME280;9947;57.722;12.012;2023-04-04T08:53:39;102390.53;;;4.77;100.00
19600;BME280;9947;57.722;12.012;2023-04-04T08:56:06;102387.63;;;4.84;100.00
19600;BME280;9947;57.722;12.012;2023-04-04T08:58:38;102393.38;;;5.03;100.00
19600;BME280;9947;57.722;12.012;2023-04-04T09:01:07;102387.81;;;4.78;100.00
19600;BME280;9947;57.722;12.012;2023-04-04T09:03:37;102395.75;;;5.14;100.00
19600;BME280;9947;57.722;12.012;2023-04-04T09:06:11;102388.81;;;5.38;100.00
19600;BME280;9947;57.722;12.012;2023-04-04T09:08:39;102391.28;;;5.47;100.00
19600;BME280;9947;57.722;12.012;2023-04-04T09:11:06;102397.38;;;5.21;100.00
19600;BME280;9947;57.722;12.012;2023-04-04T09:13:34;102398.34;;;5.17;100.00
19600;BME280;9947;57.722;12.012;2023-04-04T09:16:01;102384.47;;;5.34;100.00
19600;BME280;9947;57.722;12.012;2023-04-04T09:18:33;102382.56;;;5.68;100.00
19600;BME280;9947;57.722;12.012;2023-04-04T09:21:10;102389.38;;;5.50;100.00
19600;BME280;9947;57.722;12.012;2023-04-04T09:23:38;102384.56;;;5.62;100.00
19600;BME280;9947;57.722;12.012;2023-04-04T09:26:17;102378.34;;;5.60;100.00
19600;BME280;9947;57.722;12.012;2023-04-04T09:28:53;102385.88;;;5.78;100.00
19600;BME280;9947;57.722;12.012;2023-04-04T09:31:23;102379.41;;;5.83;100.00
19600;BME280;9947;57.722;12.012;2023-04-04T09:33:52;102379.69;;;5.45;100.00
19600;BME280;9947;57.722;12.012;2023-04-04T09:36:25;102374.00;;;5.85;100.00
19600;BME280;9947;57.722;12.012;2023-04-04T09:38:56;102365.56;;;5.68;100.00
19600;BME280;9947;57.722;12.012;2023-04-04T09:41:25;102362.44;;;5.83;100.00
19600;BME280;9947;57.722;12.012;2023-04-04T09:43:56;102364.94;;;5.89;100.00
19600;BME280;9947;57.722;12.012;2023-04-04T09:46:23;102363.41;;;6.10;100.00
19600;BME280;9947;57.722;12.012;2023-04-04T09:48:53;102360.63;;;6.13;100.00
19600;BME280;9947;57.722;12.012;2023-04-04T09:51:21;102361.56;;;6.38;100.00
19600;BME280;9947;57.722;12.012;2023-04-04T09:53:48;102368.53;;;6.17;100.00
19600;BME280;9947;57.722;12.012;2023-04-04T09:56:15;102363.59;;;6.04;100.00
19600;BME280;9947;57.722;12.012;2023-04-04T09:58:45;102363.09;;;6.19;100.00
19600;BME280;9947;57.722;12.012;2023-04-04T10:01:13;102357.13;;;6.37;100.00
19600;BME280;9947;57.722;12.012;2023-04-04T10:03:40;102364.31;;;6.37;100.00
19600;BME280;9947;57.722;12.012;2023-04-04T10:06:09;102355.81;;;6.49;100.00
19600;BME280;9947;57.722;12.012;2023-04-04T10:08:39;102358.38;;;6.54;100.00
19600;BME280;9947;57.722;12.012;2023-04-04T10:11:06;102359.59;;;6.70;98.70
19600;BME280;9947;57.722;12.012;2023-04-04T10:13:37;102358.63;;;6.97;97.90
19600;BME280;9947;57.722;12.012;2023-04-04T10:16:08;102354.88;;;7.50;94.83
19600;BME280;9947;57.722;12.012;2023-04-04T10:18:36;102346.03;;;8.15;90.83
19600;BME280;9947;57.722;12.012;2023-04-04T10:21:04;102353.41;;;8.53;87.43
19600;BME280;9947;57.722;12.012;2023-04-04T10:23:36;102344.19;;;8.79;82.67
19600;BME280;9947;57.722;12.012;2023-04-04T10:26:03;102349.94;;;8.72;81.94
19600;BME280;9947;57.722;12.012;2023-04-04T10:28:37;102345.16;;;8.14;83.66
19600;BME280;9947;57.722;12.012;2023-04-04T10:31:08;102333.00;;;7.82;86.83
19600;BME280;9947;57.722;12.012;2023-04-04T10:33:43;102338.34;;;8.70;81.74
19600;BME280;9947;57.722;12.012;2023-04-04T10:36:15;102338.78;;;8.79;82.80
19600;BME280;9947;57.722;12.012;2023-04-04T10:38:50;102324.34;;;8.18;82.62
19600;BME280;9947;57.722;12.012;2023-04-04T10:41:21;102326.34;;;8.13;83.05
19600;BME280;9947;57.722;12.012;2023-04-04T10:43:50;102330.72;;;8.15;83.44
19600;BME280;9947;57.722;12.012;2023-04-04T10:46:28;102314.97;;;7.84;79.85
19600;BME280;9947;57.722;12.012;2023-04-04T10:48:59;102320.81;;;7.72;80.17
19600;BME280;9947;57.722;12.012;2023-04-04T10:51:29;102324.06;;;7.35;81.82
19600;BME280;9947;57.722;12.012;2023-04-04T10:54:01;102322.00;;;7.41;80.83
19600;BME280;9947;57.722;12.012;2023-04-04T10:56:30;102320.25;;;7.40;78.78
19600;BME280;9947;57.722;12.012;2023-04-04T10:59:11;102329.19;;;7.18;72.73
19600;BME280;9947;57.722;12.012;2023-04-04T11:01:49;102319.84;;;7.28;70.82
19600;BME280;9947;57.722;12.012;2023-04-04T11:04:18;102316.22;;;7.29;69.44
19600;BME280;9947;57.722;12.012;2023-04-04T11:07:12;102325.81;;;7.36;66.70
19600;BME280;9947;57.722;12.012;2023-04-04T11:09:52;102311.72;;;7.29;65.70
19600;BME280;9947;57.722;12.012;2023-04-04T11:12:21;102309.81;;;7.33;62.13
19600;BME280;9947;57.722;12.012;2023-04-04T11:14:57;102315.88;;;7.38;62.16
19600;BME280;9947;57.722;12.012;2023-04-04T11:17:49;102307.50;;;7.22;61.03
19600;BME280;9947;57.722;12.012;2023-04-04T11:20:19;102312.22;;;7.16;59.38
19600;BME280;9947;57.722;12.012;2023-04-04T11:23:00;102314.69;;;7.22;58.15
19600;BME280;9947;57.722;12.012;2023-04-04T11:25:34;102305.59;;;7.01;59.42
19600;BME280;9947;57.722;12.012;2023-04-04T11:28:11;102300.28;;;6.99;58.75
19600;BME280;9947;57.722;12.012;2023-04-04T11:30:42;102302.56;;;6.87;54.92
19600;BME280;9947;57.722;12.012;2023-04-04T11:33:13;102295.53;;;6.83;53.78
19600;BME280;9947;57.722;12.012;2023-04-04T11:35:51;102300.41;;;6.71;54.56
19600;BME280;9947;57.722;12.012;2023-04-04T11:38:21;102290.16;;;6.83;53.19
19600;BME280;9947;57.722;12.012;2023-04-04T11:40:56;102296.13;;;6.91;51.27
19600;BME280;9947;57.722;12.012;2023-04-04T11:43:24;102284.22;;;6.98;51.01
19600;BME280;9947;57.722;12.012;2023-04-04T11:46:04;102283.13;;;7.03;50.42
19600;BME280;9947;57.722;12.012;2023-04-04T11:48:37;102282.09;;;7.31;50.24
19600;BME280;9947;57.722;12.012;2023-04-04T11:51:05;102283.59;;;7.38;48.44
19600;BME280;9947;57.722;12.012;2023-04-04T11:53:35;102283.22;;;7.47;48.91
19600;BME280;9947;57.722;12.012;2023-04-04T11:56:14;102280.94;;;7.60;49.96
19600;BME280;9947;57.722;12.012;2023-04-04T11:58:46;102273.22;;;7.51;50.46
19600;BME280;9947;57.722;12.012;2023-04-04T12:01:18;102281.94;;;7.57;50.62
19600;BME280;9947;57.722;12.012;2023-04-04T12:03:47;102276.63;;;7.56;49.96
19600;BME280;9947;57.722;12.012;2023-04-04T12:06:16;102268.59;;;7.76;49.92
19600;BME280;9947;57.722;12.012;2023-04-04T12:08:46;102266.03;;;7.73;50.96
19600;BME280;9947;57.722;12.012;2023-04-04T12:11:17;102274.88;;;7.55;50.52
19600;BME280;9947;57.722;12.012;2023-04-04T12:13:49;102263.88;;;7.37;50.77
19600;BME280;9947;57.722;12.012;2023-04-04T12:16:18;102264.81;;;7.36;51.69
19600;BME280;9947;57.722;12.012;2023-04-04T12:18:45;102261.69;;;7.47;50.69
19600;BME280;9947;57.722;12.012;2023-04-04T12:21:12;102265.22;;;7.71;50.55
19600;BME280;9947;57.722;12.012;2023-04-04T12:23:40;102268.72;;;7.95;49.43
19600;BME280;9947;57.722;12.012;2023-04-04T12:26:08;102253.94;;;8.05;48.56
19600;BME280;9947;57.722;12.012;2023-04-04T12:28:37;102265.34;;;8.12;49.14
19600;BME280;9947;57.722;12.012;2023-04-04T12:31:05;102257.13;;;8.15;48.46
19600;BME280;9947;57.722;12.012;2023-04-04T12:33:39;102247.78;;;8.23;48.63
19600;BME280;9947;57.722;12.012;2023-04-04T12:36:10;102256.25;;;8.36;47.98
19600;BME280;9947;57.722;12.012;2023-04-04T12:38:54;102247.91;;;8.42;47.47
19600;BME280;9947;57.722;12.012;2023-04-04T12:41:22;102240.47;;;8.47;46.63
19600;BME280;9947;57.722;12.012;2023-04-04T12:44:01;102237.19;;;8.41;46.84
19600;BME280;9947;57.722;12.012;2023-04-04T12:46:38;102241.75;;;8.39;47.63
19600;BME280;9947;57.722;12.012;2023-04-04T12:49:13;102231.72;;;8.42;47.09
19600;BME280;9947;57.722;12.012;2023-04-04T12:51:43;102229.06;;;8.81;46.69
19600;BME280;9947;57.722;12.012;2023-04-04T12:54:25;102220.34;;;8.95;45.68
19600;BME280;9947;57.722;12.012;2023-04-04T12:56:54;102218.94;;;9.05;45.77
19600;BME280;9947;57.722;12.012;2023-04-04T12:59:28;102210.00;;;9.23;45.36
19600;BME280;9947;57.722;12.012;2023-04-04T13:01:59;102218.06;;;9.05;45.88
19600;BME280;9947;57.722;12.012;2023-04-04T13:04:26;102221.72;;;9.04;45.31
19600;BME280;9947;57.722;12.012;2023-04-04T13:06:53;102210.78;;;9.07;45.46